Time,TemperatureF,DewpointF,PressureIn,WindDirection,WindDirectionDegrees,WindSpeedMPH,WindSpeedGustMPH,Humidity,HourlyPrecipIn,Conditions,Clouds,dailyrainin,SoftwareType,DateUTC
2013-05-17 00:01:00,52.0,34.0,-100.00,East,86,7.0,9.0,51,0.00,,,-99.99,,2013-05-17 06:01:00,
2013-05-17 00:11:00,51.0,35.0,-100.00,East,89,6.0,9.0,54,0.00,,,-99.99,,2013-05-17 06:11:00,
2013-05-17 00:21:00,51.0,34.0,-100.00,East,93,5.0,7.0,52,0.00,,,-99.99,,2013-05-17 06:21:00,
2013-05-17 00:32:00,51.0,34.0,-100.00,East,95,4.0,7.0,52,0.00,,,-99.99,,2013-05-17 06:32:00,
2013-05-17 00:51:00,51.0,34.0,-100.00,ESE,116,2.0,7.0,52,0.00,,,-99.99,,2013-05-17 06:51:00,
2013-05-17 01:02:00,51.0,33.0,-100.00,SE,136,4.0,8.0,50,-99.99,,,-99.99,,2013-05-17 07:02:00,
2013-05-17 01:11:00,51.0,33.0,-100.00,SE,124,6.0,8.0,50,0.00,,,-99.99,,2013-05-17 07:11:00,
2013-05-17 01:21:00,50.0,34.0,-100.00,SE,134,6.0,9.0,53,0.00,,,-99.99,,2013-05-17 07:21:00,
2013-05-17 01:32:00,50.0,33.0,-100.00,SSE,157,3.0,4.0,53,0.00,,,-99.99,,2013-05-17 07:32:00,
2013-05-17 01:43:00,50.0,33.0,-100.00,SE,131,2.0,4.0,52,0.00,,,-99.99,,2013-05-17 07:43:00,
2013-05-17 01:53:00,52.0,32.0,-100.00,East,88,6.0,9.0,47,0.00,,,-99.99,,2013-05-17 07:53:00,
2013-05-17 02:02:00,54.0,32.0,-100.00,East,83,7.0,9.0,43,0.00,,,-99.99,,2013-05-17 08:02:00,
2013-05-17 02:12:00,54.0,32.0,-100.00,ENE,78,6.0,8.0,42,0.00,,,-99.99,,2013-05-17 08:12:00,
2013-05-17 02:22:00,53.0,32.0,-100.00,East,83,5.0,8.0,44,0.00,,,-99.99,,2013-05-17 08:22:00,
2013-05-17 02:33:00,51.0,32.0,-100.00,ESE,102,4.0,6.0,48,0.00,,,-99.99,,2013-05-17 08:33:00,
2013-05-17 02:43:00,-999.0,-99.9,-100.00,ESE,106,3.0,6.0,-999,-99.99,,,-99.99,,2013-05-17 08:43:00,
2013-05-17 02:51:00,48.0,33.0,-100.00,WSW,246,4.0,7.0,55,0.00,,,-99.99,,2013-05-17 08:51:00,
2013-05-17 03:02:00,48.0,32.0,-100.00,SSW,213,4.0,6.0,54,0.00,,,-99.99,,2013-05-17 09:02:00,
2013-05-17 03:12:00,48.0,32.0,-100.00,SSW,202,2.0,5.0,54,0.00,,,-99.99,,2013-05-17 09:12:00,
2013-05-17 03:22:00,48.0,32.0,-100.00,WNW,284,2.0,4.0,53,0.00,,,-99.99,,2013-05-17 09:22:00,
2013-05-17 03:33:00,50.0,33.0,-100.00,SW,226,3.0,5.0,52,0.00,,,-99.99,,2013-05-17 09:33:00,
2013-05-17 03:42:00,48.0,33.0,-100.00,East,99,0.0,2.0,54,0.00,,,-99.99,,2013-05-17 09:42:00,
2013-05-17 03:53:00,48.0,32.0,-100.00,SE,138,1.0,2.0,54,0.00,,,-99.99,,2013-05-17 09:53:00,
2013-05-17 04:03:00,49.0,32.0,-100.00,WSW,239,0.0,2.0,52,0.00,,,-99.99,,2013-05-17 10:03:00,
2013-05-17 04:12:00,49.0,32.0,-100.00,NNE,30,2.0,6.0,53,0.00,,,-99.99,,2013-05-17 10:12:00,
2013-05-17 04:23:00,47.0,32.0,-100.00,NNE,20,3.0,6.0,55,0.00,,,-99.99,,2013-05-17 10:23:00,
2013-05-17 04:32:00,48.0,32.0,-100.00,North,353,5.0,7.0,54,0.00,,,-99.99,,2013-05-17 10:32:00,
2013-05-17 04:42:00,51.0,32.0,-100.00,NNW,347,3.0,5.0,49,0.00,,,-99.99,,2013-05-17 10:42:00,
2013-05-17 04:53:00,47.0,33.0,-100.00,WSW,240,2.0,4.0,58,0.00,,,-99.99,,2013-05-17 10:53:00,
2013-05-17 05:02:00,45.0,32.0,-100.00,SSE,155,1.0,3.0,60,0.00,,,-99.99,,2013-05-17 11:02:00,
2013-05-17 05:12:00,46.0,32.0,-100.00,East,86,1.0,4.0,58,0.00,,,-99.99,,2013-05-17 11:12:00,
2013-05-17 05:22:00,47.0,31.0,-100.00,East,95,1.0,2.0,54,0.00,,,-99.99,,2013-05-17 11:22:00,
2013-05-17 05:34:00,49.0,32.0,-100.00,SW,220,1.0,3.0,50,0.00,,,-99.99,,2013-05-17 11:34:00,
2013-05-17 05:42:00,51.0,31.0,-100.00,SW,224,1.0,2.0,48,0.00,,,-99.99,,2013-05-17 11:42:00,
2013-05-17 05:52:00,50.0,31.0,-100.00,SSW,196,1.0,3.0,48,0.00,,,-99.99,,2013-05-17 11:52:00,
2013-05-17 06:03:00,50.0,31.0,-100.00,SE,133,1.0,3.0,48,0.00,,,-99.99,,2013-05-17 12:03:00,
2013-05-17 06:12:00,48.0,31.0,-100.00,South,174,1.0,4.0,50,0.00,,,-99.99,,2013-05-17 12:12:00,
2013-05-17 06:23:00,48.0,31.0,-100.00,SSW,198,1.0,4.0,52,0.00,,,-99.99,,2013-05-17 12:23:00,
2013-05-17 06:32:00,50.0,31.0,-100.00,SSE,154,1.0,3.0,48,0.00,,,-99.99,,2013-05-17 12:32:00,
2013-05-17 06:43:00,49.0,32.0,-100.00,SSE,167,1.0,3.0,50,0.00,,,-99.99,,2013-05-17 12:43:00,
2013-05-17 06:53:00,50.0,31.0,-100.00,SE,143,2.0,5.0,47,0.00,,,-99.99,,2013-05-17 12:53:00,
2013-05-17 07:03:00,50.0,31.0,-100.00,SE,145,4.0,6.0,49,0.00,,,-99.99,,2013-05-17 13:03:00,
2013-05-17 07:12:00,51.0,31.0,-100.00,SSE,147,5.0,9.0,46,0.00,,,-99.99,,2013-05-17 13:12:00,
2013-05-17 07:23:00,54.0,28.0,-100.00,SE,140,10.0,13.0,37,0.00,,,-99.99,,2013-05-17 13:23:00,
2013-05-17 07:33:00,55.0,29.0,-100.00,SE,141,10.0,14.0,36,0.00,,,-99.99,,2013-05-17 13:33:00,
2013-05-17 07:42:00,55.0,28.0,-100.00,SE,138,11.0,16.0,35,0.00,,,-99.99,,2013-05-17 13:42:00,
2013-05-17 07:52:00,56.0,27.0,-100.00,SE,133,11.0,16.0,33,0.00,,,-99.99,,2013-05-17 13:52:00,
2013-05-17 08:02:00,56.0,28.0,-100.00,SE,131,12.0,16.0,33,0.00,,,-99.99,,2013-05-17 14:02:00,
2013-05-17 08:13:00,57.0,28.0,-100.00,SE,133,11.0,14.0,33,0.00,,,-99.99,,2013-05-17 14:13:00,
2013-05-17 08:22:00,57.0,28.0,-100.00,SE,144,11.0,14.0,33,0.00,,,-99.99,,2013-05-17 14:22:00,
2013-05-17 08:34:00,57.0,31.0,-100.00,SSE,158,10.0,13.0,37,0.00,,,-99.99,,2013-05-17 14:34:00,
2013-05-17 08:43:00,58.0,28.0,-100.00,South,171,11.0,14.0,31,0.00,,,-99.99,,2013-05-17 14:43:00,
2013-05-17 08:53:00,59.0,29.0,-100.00,SSE,162,12.0,17.0,31,0.00,,,-99.99,,2013-05-17 14:53:00,
2013-05-17 09:03:00,59.0,27.0,-100.00,SSE,150,16.0,24.0,29,0.00,,,-99.99,,2013-05-17 15:03:00,
2013-05-17 09:14:00,60.0,26.0,-100.00,SSE,148,16.0,23.0,27,0.00,,,-99.99,,2013-05-17 15:14:00,
2013-05-17 09:25:00,60.0,26.0,-100.00,SE,144,17.0,24.0,27,0.00,,,-99.99,,2013-05-17 15:25:00,
2013-05-17 09:37:00,60.0,25.0,-100.00,SE,141,17.0,26.0,26,0.00,,,-99.99,,2013-05-17 15:37:00,
2013-05-17 09:47:00,60.0,26.0,-100.00,SE,141,18.0,24.0,27,0.00,,,-99.99,,2013-05-17 15:47:00,
2013-05-17 09:56:00,61.0,25.0,-100.00,SE,145,16.0,22.0,26,0.00,,,-99.99,,2013-05-17 15:56:00,
2013-05-17 10:07:00,61.0,26.0,-100.00,SSE,151,17.0,26.0,26,0.00,,,-99.99,,2013-05-17 16:07:00,
2013-05-17 10:13:00,62.0,27.0,-100.00,SSE,154,17.0,24.0,26,0.00,,,-99.99,,2013-05-17 16:13:00,
2013-05-17 10:26:00,62.0,24.0,-100.00,SSE,155,16.0,24.0,23,0.00,,,-99.99,,2013-05-17 16:26:00,
2013-05-17 10:37:00,62.0,24.0,-100.00,SSE,148,15.0,21.0,23,0.00,,,-99.99,,2013-05-17 16:37:00,
2013-05-17 10:49:00,63.0,23.0,-100.00,South,179,19.0,24.0,22,0.00,,,-99.99,,2013-05-17 16:49:00,
2013-05-17 10:56:00,63.0,23.0,-100.00,SSE,164,19.0,26.0,21,0.00,,,-99.99,,2013-05-17 16:56:00,
2013-05-17 11:08:00,64.0,22.0,-100.00,SSE,165,19.0,28.0,20,0.00,,,-99.99,,2013-05-17 17:08:00,
2013-05-17 11:18:00,63.0,22.0,-100.00,SSE,164,21.0,28.0,20,0.00,,,-99.99,,2013-05-17 17:18:00,
2013-05-17 11:29:00,64.0,21.0,-100.00,SSE,164,20.0,26.0,19,0.00,,,-99.99,,2013-05-17 17:29:00,
2013-05-17 11:40:00,63.0,-99.9,-100.00,SSE,150,17.0,24.0,23,0.00,,,-99.99,,2013-05-17 17:40:00,
2013-05-17 11:49:00,64.0,24.0,-100.00,SSE,164,18.0,27.0,22,0.00,,,-99.99,,2013-05-17 17:49:00,
2013-05-17 12:00:00,64.0,24.0,-100.00,SSE,158,15.0,22.0,22,0.00,,,-99.99,,2013-05-17 18:00:00,
2013-05-17 12:08:00,65.0,24.0,-100.00,SSE,158,15.0,29.0,21,0.00,,,-99.99,,2013-05-17 18:08:00,
2013-05-17 12:20:00,65.0,25.0,-100.00,SSE,167,16.0,29.0,22,0.00,,,-99.99,,2013-05-17 18:20:00,
2013-05-17 12:30:00,66.0,25.0,-100.00,SSE,164,16.0,23.0,21,0.00,,,-99.99,,2013-05-17 18:30:00,
2013-05-17 12:40:00,66.0,-99.9,-100.00,South,172,17.0,30.0,20,0.00,,,-99.99,,2013-05-17 18:40:00,
2013-05-17 12:50:00,-999.0,-99.9,-100.00,SSE,161,19.0,30.0,19,0.00,,,-99.99,,2013-05-17 18:50:00,
2013-05-17 13:00:00,66.0,20.0,-100.00,SSE,167,22.0,32.0,17,0.00,,,-99.99,,2013-05-17 19:00:00,
2013-05-17 13:10:00,68.0,24.0,-100.00,SSE,161,18.0,26.0,18,0.00,,,-99.99,,2013-05-17 19:10:00,
2013-05-17 13:20:00,67.0,22.0,-100.00,SSE,167,19.0,26.0,18,0.00,,,-99.99,,2013-05-17 19:20:00,
2013-05-17 13:30:00,68.0,19.0,-100.00,South,174,21.0,29.0,15,0.00,,,-99.99,,2013-05-17 19:30:00,
2013-05-17 13:40:00,67.0,18.0,-100.00,South,171,21.0,29.0,15,0.00,,,-99.99,,2013-05-17 19:40:00,
2013-05-17 13:50:00,67.0,20.0,-100.00,SSE,164,21.0,29.0,16,0.00,,,-99.99,,2013-05-17 19:50:00,
2013-05-17 14:00:00,70.0,-99.9,-100.00,South,179,17.0,25.0,17,0.00,,,-99.99,,2013-05-17 20:00:00,
2013-05-17 14:09:00,68.0,21.0,-100.00,SSE,167,15.0,26.0,16,0.00,,,-99.99,,2013-05-17 20:09:00,
2013-05-17 14:20:00,69.0,24.0,-100.00,SSE,158,20.0,37.0,18,0.00,,,-99.99,,2013-05-17 20:20:00,
2013-05-17 14:30:00,68.0,21.0,-100.00,SSE,167,17.0,27.0,17,0.00,,,-99.99,,2013-05-17 20:30:00,
2013-05-17 14:40:00,69.0,21.0,-100.00,SSE,161,21.0,29.0,16,0.00,,,-99.99,,2013-05-17 20:40:00,
2013-05-17 14:49:00,67.0,21.0,-100.00,SE,145,19.0,29.0,17,0.00,,,-99.99,,2013-05-17 20:49:00,
2013-05-17 14:58:00,70.0,24.0,-100.00,SE,145,16.0,24.0,17,0.00,,,-99.99,,2013-05-17 20:58:00,
2013-05-17 15:07:00,68.0,22.0,-100.00,South,174,19.0,25.0,18,0.00,,,-99.99,,2013-05-17 21:07:00,
2013-05-17 15:16:00,67.0,23.0,-100.00,SSE,168,17.0,24.0,19,0.00,,,-99.99,,2013-05-17 21:16:00,
2013-05-17 15:26:00,67.0,23.0,-100.00,South,172,16.0,20.0,19,0.00,,,-99.99,,2013-05-17 21:26:00,
2013-05-17 15:39:00,68.0,19.0,-100.00,SSE,154,16.0,27.0,15,0.00,,,-99.99,,2013-05-17 21:39:00,
2013-05-17 15:49:00,68.0,21.0,-100.00,SE,145,15.0,25.0,17,0.00,,,-99.99,,2013-05-17 21:49:00,
2013-05-17 15:57:00,68.0,21.0,-100.00,SSE,161,15.0,24.0,16,0.00,,,-99.99,,2013-05-17 21:57:00,
2013-05-17 16:06:00,68.0,19.0,-100.00,SSE,157,17.0,24.0,15,0.00,,,-99.99,,2013-05-17 22:06:00,
2013-05-17 16:17:00,68.0,20.0,-100.00,SSE,158,14.0,22.0,16,0.00,,,-99.99,,2013-05-17 22:17:00,
2013-05-17 16:28:00,67.0,19.0,-100.00,SSE,147,17.0,23.0,16,0.00,,,-99.99,,2013-05-17 22:28:00,
2013-05-17 16:38:00,67.0,21.0,-100.00,SSE,148,16.0,21.0,17,0.00,,,-99.99,,2013-05-17 22:38:00,
2013-05-17 16:47:00,67.0,23.0,-100.00,SSE,164,20.0,26.0,19,0.00,,,-99.99,,2013-05-17 22:47:00,
2013-05-17 16:54:00,68.0,22.0,-100.00,SSE,158,20.0,27.0,18,0.00,,,-99.99,,2013-05-17 22:54:00,
2013-05-17 17:04:00,67.0,22.0,-100.00,SSE,157,14.0,23.0,17,0.00,,,-99.99,,2013-05-17 23:04:00,
2013-05-17 17:13:00,68.0,22.0,-100.00,SSE,164,19.0,26.0,18,0.00,,,-99.99,,2013-05-17 23:13:00,
2013-05-17 17:23:00,69.0,21.0,-100.00,SSE,162,18.0,28.0,16,0.00,,,-99.99,,2013-05-17 23:23:00,
2013-05-17 17:37:00,68.0,19.0,-100.00,SSE,148,17.0,24.0,15,0.00,,,-99.99,,2013-05-17 23:37:00,
2013-05-17 17:47:00,67.0,17.0,-100.00,SE,143,17.0,24.0,14,0.00,,,-99.99,,2013-05-17 23:47:00,
2013-05-17 17:54:00,66.0,17.0,-100.00,SSE,155,20.0,26.0,15,0.00,,,-99.99,,2013-05-17 23:54:00,
2013-05-17 18:02:00,66.0,17.0,-100.00,SSE,148,18.0,26.0,15,0.00,,,-99.99,,2013-05-18 00:02:00,
2013-05-17 18:14:00,66.0,17.0,-100.00,SSE,148,21.0,28.0,15,0.00,,,-99.99,,2013-05-18 00:14:00,
2013-05-17 18:21:00,67.0,16.0,-100.00,SE,144,17.0,22.0,14,0.00,,,-99.99,,2013-05-18 00:21:00,
2013-05-17 18:33:00,66.0,14.0,-100.00,SSE,148,21.0,28.0,13,0.00,,,-99.99,,2013-05-18 00:33:00,
2013-05-17 18:44:00,65.0,14.0,-100.00,SSE,151,21.0,29.0,13,0.00,,,-99.99,,2013-05-18 00:44:00,
2013-05-17 18:54:00,65.0,15.0,-100.00,SE,143,16.0,23.0,14,0.00,,,-99.99,,2013-05-18 00:54:00,
2013-05-17 19:02:00,65.0,15.0,-100.00,SSE,152,14.0,22.0,14,0.00,,,-99.99,,2013-05-18 01:02:00,
2013-05-17 19:13:00,64.0,20.0,-100.00,SSE,164,12.0,19.0,18,0.00,,,-99.99,,2013-05-18 01:13:00,
2013-05-17 19:24:00,64.0,17.0,-100.00,SSE,164,12.0,16.0,16,0.00,,,-99.99,,2013-05-18 01:24:00,
2013-05-17 19:32:00,64.0,19.0,-100.00,SSE,164,9.0,13.0,18,0.00,,,-99.99,,2013-05-18 01:32:00,
2013-05-17 19:42:00,63.0,22.0,-100.00,SSE,168,7.0,11.0,20,0.00,,,-99.99,,2013-05-18 01:42:00,
2013-05-17 19:52:00,62.0,23.0,-100.00,South,181,6.0,9.0,22,0.00,,,-99.99,,2013-05-18 01:52:00,
2013-05-17 20:02:00,62.0,20.0,-100.00,SSE,165,7.0,14.0,20,0.00,,,-99.99,,2013-05-18 02:02:00,
2013-05-17 20:12:00,60.0,21.0,-100.00,South,171,9.0,12.0,22,0.00,,,-99.99,,2013-05-18 02:12:00,
2013-05-17 20:22:00,60.0,19.0,-100.00,South,172,10.0,14.0,20,0.00,,,-99.99,,2013-05-18 02:22:00,
2013-05-17 20:31:00,59.0,20.0,-100.00,SSE,162,7.0,9.0,22,0.00,,,-99.99,,2013-05-18 02:31:00,
2013-05-17 20:42:00,59.0,20.0,-100.00,SSE,162,7.0,9.0,22,0.00,,,-99.99,,2013-05-18 02:42:00,
2013-05-17 20:53:00,59.0,18.0,-100.00,SSE,154,10.0,14.0,20,0.00,,,-99.99,,2013-05-18 02:53:00,
2013-05-17 21:02:00,56.0,20.0,-100.00,SSE,165,11.0,16.0,24,0.00,,,-99.99,,2013-05-18 03:02:00,
2013-05-17 21:12:00,55.0,20.0,-100.00,South,175,8.0,12.0,26,0.00,,,-99.99,,2013-05-18 03:12:00,
2013-05-17 21:22:00,55.0,20.0,-100.00,South,176,6.0,7.0,25,0.00,,,-99.99,,2013-05-18 03:22:00,
2013-05-17 21:32:00,54.0,19.0,-100.00,SSE,148,4.0,6.0,24,0.00,,,-99.99,,2013-05-18 03:32:00,
2013-05-17 21:43:00,56.0,18.0,-100.00,ESE,121,6.0,10.0,22,0.00,,,-99.99,,2013-05-18 03:43:00,
2013-05-17 21:53:00,56.0,17.0,-100.00,SE,124,6.0,9.0,22,0.00,,,-99.99,,2013-05-18 03:53:00,
2013-05-17 22:02:00,53.0,20.0,-100.00,ESE,116,6.0,11.0,27,0.00,,,-99.99,,2013-05-18 04:02:00,
2013-05-17 22:12:00,52.0,20.0,-100.00,ESE,109,7.0,11.0,28,0.00,,,-99.99,,2013-05-18 04:12:00,
2013-05-17 22:23:00,52.0,19.0,-100.00,ESE,103,9.0,14.0,27,0.00,,,-99.99,,2013-05-18 04:23:00,
2013-05-17 22:33:00,51.0,16.0,-100.00,SE,144,10.0,15.0,25,0.00,,,-99.99,,2013-05-18 04:33:00,
2013-05-17 22:42:00,48.0,18.0,-100.00,South,182,5.0,8.0,29,0.00,,,-99.99,,2013-05-18 04:42:00,
2013-05-17 22:52:00,48.0,22.0,-100.00,South,175,5.0,9.0,35,0.00,,,-99.99,,2013-05-18 04:52:00,
2013-05-17 23:02:00,48.0,21.0,-100.00,SSE,167,6.0,8.0,34,0.00,,,-99.99,,2013-05-18 05:02:00,
2013-05-17 23:12:00,47.0,23.0,-100.00,SSE,161,6.0,9.0,39,0.00,,,-99.99,,2013-05-18 05:12:00,
2013-05-17 23:22:00,47.0,28.0,-100.00,South,186,6.0,9.0,47,0.00,,,-99.99,,2013-05-18 05:22:00,
2013-05-17 23:31:00,47.0,30.0,-100.00,South,181,6.0,11.0,51,0.00,,,-99.99,,2013-05-18 05:31:00,
2013-05-17 23:42:00,47.0,31.0,-100.00,South,181,5.0,9.0,53,0.00,,,-99.99,,2013-05-18 05:42:00,
2013-05-17 23:51:00,46.0,32.0,-100.00,South,174,4.0,7.0,57,0.00,,,-99.99,,2013-05-18 05:51:00,